This is the latest recevied weather packets stored in our database for station/object KF4KUL. If no packets are shown the sender has not sent any weather packets the latest 1 day(s).
| Time | Temp. | Humidity | Pressure | Rain* | Wind** | Luminosity | Snow |
|---|---|---|---|---|---|---|---|
| 1777993402 | 26.67° C | 62% | 1015.9 hPa | 0 mm | 1.34 m/s, 238° | - | - |
| 1777992501 | 26.67° C | 62% | 1016.1 hPa | 0 mm | 1.34 m/s, 115° | - | - |
| 1777991600 | 26.11° C | 63% | 1016.1 hPa | 0 mm | 2.24 m/s, 100° | - | - |
| 1777990699 | 26.11° C | 64% | 1016 hPa | 0 mm | 3.13 m/s, 104° | - | - |
| 1777989798 | 26.11° C | 67% | 1015.9 hPa | 0 mm | 0.45 m/s, 235° | - | - |
| 1777988897 | 25° C | 69% | 1015.8 hPa | 0 mm | 0.45 m/s, 359° | - | - |
| 1777987996 | 24.44° C | 70% | 1015.7 hPa | 0 mm | 0 m/s | - | - |
| 1777987095 | 23.33° C | 73% | 1015.6 hPa | 0 mm | 0.89 m/s, 195° | - | - |
| 1777986194 | 22.78° C | 75% | 1015.5 hPa | 0 mm | 1.34 m/s, 149° | - | - |
| 1777985293 | 22.22° C | 78% | 1015.4 hPa | 0 mm | 0.89 m/s, 143° | - | - |
| 1777984392 | 21.11° C | 81% | 1015.5 hPa | 0 mm | 0 m/s | - | - |
| 1777983491 | 20.56° C | 83% | 1015.5 hPa | 0 mm | 1.79 m/s, 200° | - | - |
| 1777982590 | 20° C | 85% | 1015.5 hPa | 0 mm | 0 m/s | - | - |
| 1777981689 | 19.44° C | 87% | 1015.6 hPa | 0 mm | 0 m/s | - | - |
| 1777980788 | 18.89° C | 88% | 1015.6 hPa | 0 mm | 0 m/s | - | - |
| 1777979887 | 18.33° C | 88% | 1015.2 hPa | 0 mm | 0 m/s | - | - |
| 1777978986 | 18.33° C | 88% | 1014.8 hPa | 0 mm | 0 m/s | - | - |
| 1777978085 | 18.33° C | 88% | 1014.6 hPa | 0 mm | 0 m/s | - | - |
| 1777977184 | 18.33° C | 88% | 1014.6 hPa | 0 mm | 0 m/s | - | - |
| 1777976283 | 17.78° C | 88% | 1014.4 hPa | 0 mm | 0 m/s | - | - |
| 1777975382 | 18.89° C | 87% | 1014.5 hPa | 0 mm | 0 m/s | - | - |
| 1777974481 | 18.33° C | 87% | 1014.3 hPa | 0 mm | 0 m/s | - | - |
* Rain latest hour (hover to see other rain measurements)
** Current wind speed in m/s (hover to see current wind gust speed)